sensor_id;sensor_type;location;lat;lon;timestamp;P1;durP1;ratioP1;P2;durP2;ratioP2
25069;SDS011;13064;48.162;11.536;2023-05-27T00:00:25;9.93;;;7.03;;
25069;SDS011;13064;48.162;11.536;2023-05-27T00:02:53;13.00;;;7.13;;
25069;SDS011;13064;48.162;11.536;2023-05-27T00:05:21;12.55;;;6.97;;
25069;SDS011;13064;48.162;11.536;2023-05-27T00:07:48;12.35;;;7.13;;
25069;SDS011;13064;48.162;11.536;2023-05-27T00:10:16;12.45;;;6.72;;
25069;SDS011;13064;48.162;11.536;2023-05-27T00:12:44;13.20;;;6.78;;
25069;SDS011;13064;48.162;11.536;2023-05-27T00:15:11;14.07;;;7.13;;
25069;SDS011;13064;48.162;11.536;2023-05-27T00:17:39;9.52;;;6.28;;
25069;SDS011;13064;48.162;11.536;2023-05-27T00:20:09;12.50;;;7.50;;
25069;SDS011;13064;48.162;11.536;2023-05-27T00:22:39;12.20;;;7.05;;
25069;SDS011;13064;48.162;11.536;2023-05-27T00:25:07;11.82;;;6.65;;
25069;SDS011;13064;48.162;11.536;2023-05-27T00:27:35;10.05;;;6.47;;
25069;SDS011;13064;48.162;11.536;2023-05-27T00:30:03;16.60;;;7.18;;
25069;SDS011;13064;48.162;11.536;2023-05-27T00:32:30;11.48;;;7.40;;
25069;SDS011;13064;48.162;11.536;2023-05-27T00:34:58;12.05;;;7.00;;
25069;SDS011;13064;48.162;11.536;2023-05-27T00:37:26;11.05;;;7.28;;
25069;SDS011;13064;48.162;11.536;2023-05-27T00:39:54;13.95;;;7.43;;
25069;SDS011;13064;48.162;11.536;2023-05-27T00:42:21;11.77;;;7.60;;
25069;SDS011;13064;48.162;11.536;2023-05-27T00:44:49;11.52;;;7.05;;
25069;SDS011;13064;48.162;11.536;2023-05-27T00:47:17;11.23;;;7.38;;
25069;SDS011;13064;48.162;11.536;2023-05-27T00:49:45;10.60;;;7.00;;
25069;SDS011;13064;48.162;11.536;2023-05-27T00:52:13;13.18;;;6.95;;
25069;SDS011;13064;48.162;11.536;2023-05-27T00:54:41;12.50;;;7.57;;
25069;SDS011;13064;48.162;11.536;2023-05-27T00:57:08;15.38;;;7.70;;
25069;SDS011;13064;48.162;11.536;2023-05-27T00:59:37;12.75;;;6.97;;
25069;SDS011;13064;48.162;11.536;2023-05-27T01:02:05;16.77;;;7.45;;
25069;SDS011;13064;48.162;11.536;2023-05-27T01:04:32;13.27;;;7.32;;
25069;SDS011;13064;48.162;11.536;2023-05-27T01:07:03;16.20;;;7.15;;
25069;SDS011;13064;48.162;11.536;2023-05-27T01:09:38;13.95;;;7.95;;
25069;SDS011;13064;48.162;11.536;2023-05-27T01:12:08;15.00;;;7.35;;
25069;SDS011;13064;48.162;11.536;2023-05-27T01:14:38;10.15;;;7.13;;
25069;SDS011;13064;48.162;11.536;2023-05-27T01:17:06;13.90;;;7.88;;
25069;SDS011;13064;48.162;11.536;2023-05-27T01:19:35;10.93;;;7.05;;
25069;SDS011;13064;48.162;11.536;2023-05-27T01:22:06;13.48;;;7.57;;
25069;SDS011;13064;48.162;11.536;2023-05-27T01:24:34;10.98;;;7.35;;
25069;SDS011;13064;48.162;11.536;2023-05-27T01:27:04;16.55;;;7.72;;
25069;SDS011;13064;48.162;11.536;2023-05-27T01:29:31;14.82;;;7.78;;
25069;SDS011;13064;48.162;11.536;2023-05-27T01:34:40;14.25;;;7.47;;
25069;SDS011;13064;48.162;11.536;2023-05-27T01:37:09;10.38;;;7.30;;
25069;SDS011;13064;48.162;11.536;2023-05-27T01:39:40;11.15;;;7.68;;
25069;SDS011;13064;48.162;11.536;2023-05-27T01:42:09;11.45;;;7.13;;
25069;SDS011;13064;48.162;11.536;2023-05-27T01:44:37;13.35;;;7.55;;
25069;SDS011;13064;48.162;11.536;2023-05-27T01:47:06;14.00;;;7.07;;
25069;SDS011;13064;48.162;11.536;2023-05-27T01:49:34;10.50;;;7.35;;
25069;SDS011;13064;48.162;11.536;2023-05-27T01:52:02;11.82;;;7.45;;
25069;SDS011;13064;48.162;11.536;2023-05-27T01:54:30;10.13;;;6.97;;
25069;SDS011;13064;48.162;11.536;2023-05-27T01:56:58;14.18;;;7.68;;
25069;SDS011;13064;48.162;11.536;2023-05-27T01:59:25;10.75;;;6.82;;
25069;SDS011;13064;48.162;11.536;2023-05-27T02:01:53;11.45;;;7.78;;
25069;SDS011;13064;48.162;11.536;2023-05-27T02:04:21;15.40;;;6.95;;
25069;SDS011;13064;48.162;11.536;2023-05-27T02:06:48;13.07;;;7.82;;
25069;SDS011;13064;48.162;11.536;2023-05-27T02:09:16;13.27;;;8.02;;
25069;SDS011;13064;48.162;11.536;2023-05-27T02:11:46;14.10;;;8.02;;
25069;SDS011;13064;48.162;11.536;2023-05-27T02:14:14;16.25;;;7.90;;
25069;SDS011;13064;48.162;11.536;2023-05-27T02:16:41;10.75;;;6.93;;
25069;SDS011;13064;48.162;11.536;2023-05-27T02:19:10;11.85;;;7.40;;
25069;SDS011;13064;48.162;11.536;2023-05-27T02:21:37;11.98;;;7.70;;
25069;SDS011;13064;48.162;11.536;2023-05-27T02:24:05;13.70;;;7.28;;
25069;SDS011;13064;48.162;11.536;2023-05-27T02:26:33;13.75;;;7.75;;
25069;SDS011;13064;48.162;11.536;2023-05-27T02:29:02;12.43;;;7.25;;
25069;SDS011;13064;48.162;11.536;2023-05-27T02:31:30;13.38;;;7.65;;
25069;SDS011;13064;48.162;11.536;2023-05-27T02:33:57;14.52;;;7.22;;
25069;SDS011;13064;48.162;11.536;2023-05-27T02:36:25;12.98;;;7.43;;
25069;SDS011;13064;48.162;11.536;2023-05-27T02:38:54;10.23;;;7.10;;
25069;SDS011;13064;48.162;11.536;2023-05-27T02:41:22;13.15;;;8.13;;
25069;SDS011;13064;48.162;11.536;2023-05-27T02:43:49;12.00;;;7.35;;
25069;SDS011;13064;48.162;11.536;2023-05-27T02:46:17;14.65;;;7.18;;
25069;SDS011;13064;48.162;11.536;2023-05-27T02:48:45;13.85;;;7.38;;
25069;SDS011;13064;48.162;11.536;2023-05-27T02:51:14;14.70;;;8.07;;
25069;SDS011;13064;48.162;11.536;2023-05-27T02:53:41;11.40;;;7.45;;
25069;SDS011;13064;48.162;11.536;2023-05-27T02:56:09;12.32;;;8.02;;
25069;SDS011;13064;48.162;11.536;2023-05-27T02:58:37;14.00;;;7.60;;
25069;SDS011;13064;48.162;11.536;2023-05-27T03:01:04;12.30;;;7.13;;
25069;SDS011;13064;48.162;11.536;2023-05-27T03:03:32;12.15;;;8.15;;
25069;SDS011;13064;48.162;11.536;2023-05-27T03:06:00;14.15;;;8.18;;
25069;SDS011;13064;48.162;11.536;2023-05-27T03:08:27;14.23;;;7.82;;
25069;SDS011;13064;48.162;11.536;2023-05-27T03:10:55;16.23;;;8.77;;
25069;SDS011;13064;48.162;11.536;2023-05-27T03:13:23;12.30;;;8.10;;
25069;SDS011;13064;48.162;11.536;2023-05-27T03:15:51;11.25;;;7.53;;
25069;SDS011;13064;48.162;11.536;2023-05-27T03:18:21;16.65;;;7.75;;
25069;SDS011;13064;48.162;11.536;2023-05-27T03:20:49;13.50;;;7.65;;
25069;SDS011;13064;48.162;11.536;2023-05-27T03:23:18;15.65;;;8.27;;
25069;SDS011;13064;48.162;11.536;2023-05-27T03:25:47;14.27;;;7.38;;
25069;SDS011;13064;48.162;11.536;2023-05-27T03:28:15;12.35;;;8.15;;
25069;SDS011;13064;48.162;11.536;2023-05-27T03:30:43;14.93;;;7.65;;
25069;SDS011;13064;48.162;11.536;2023-05-27T03:33:25;12.13;;;7.53;;
25069;SDS011;13064;48.162;11.536;2023-05-27T03:35:52;11.93;;;7.68;;
25069;SDS011;13064;48.162;11.536;2023-05-27T03:38:22;12.20;;;7.68;;
25069;SDS011;13064;48.162;11.536;2023-05-27T03:40:50;14.77;;;7.70;;
25069;SDS011;13064;48.162;11.536;2023-05-27T03:43:17;13.65;;;7.22;;
25069;SDS011;13064;48.162;11.536;2023-05-27T03:45:46;10.73;;;7.63;;
25069;SDS011;13064;48.162;11.536;2023-05-27T03:48:13;14.60;;;8.02;;
25069;SDS011;13064;48.162;11.536;2023-05-27T03:50:41;13.65;;;7.68;;
25069;SDS011;13064;48.162;11.536;2023-05-27T03:53:09;12.70;;;8.20;;
25069;SDS011;13064;48.162;11.536;2023-05-27T03:55:37;12.88;;;7.78;;
25069;SDS011;13064;48.162;11.536;2023-05-27T03:58:06;10.88;;;7.50;;
25069;SDS011;13064;48.162;11.536;2023-05-27T04:00:33;17.30;;;7.85;;
25069;SDS011;13064;48.162;11.536;2023-05-27T04:03:05;16.25;;;7.97;;
25069;SDS011;13064;48.162;11.536;2023-05-27T04:05:34;13.70;;;8.32;;
25069;SDS011;13064;48.162;11.536;2023-05-27T04:08:04;12.57;;;6.93;;
25069;SDS011;13064;48.162;11.536;2023-05-27T04:10:32;12.85;;;7.22;;
25069;SDS011;13064;48.162;11.536;2023-05-27T04:12:59;12.05;;;7.90;;
25069;SDS011;13064;48.162;11.536;2023-05-27T04:15:27;14.07;;;7.82;;
25069;SDS011;13064;48.162;11.536;2023-05-27T04:17:54;12.98;;;7.38;;
25069;SDS011;13064;48.162;11.536;2023-05-27T04:20:22;17.17;;;7.20;;
25069;SDS011;13064;48.162;11.536;2023-05-27T04:22:55;11.60;;;6.65;;
25069;SDS011;13064;48.162;11.536;2023-05-27T04:25:23;12.77;;;6.80;;
25069;SDS011;13064;48.162;11.536;2023-05-27T04:28:00;12.60;;;7.93;;
25069;SDS011;13064;48.162;11.536;2023-05-27T04:33:00;13.07;;;7.32;;
25069;SDS011;13064;48.162;11.536;2023-05-27T04:35:28;12.13;;;6.47;;
25069;SDS011;13064;48.162;11.536;2023-05-27T04:37:57;12.70;;;7.47;;
25069;SDS011;13064;48.162;11.536;2023-05-27T04:40:36;12.15;;;7.13;;
25069;SDS011;13064;48.162;11.536;2023-05-27T04:43:18;33.28;;;9.20;;
25069;SDS011;13064;48.162;11.536;2023-05-27T04:45:47;30.92;;;8.55;;
25069;SDS011;13064;48.162;11.536;2023-05-27T04:48:15;11.55;;;7.47;;
25069;SDS011;13064;48.162;11.536;2023-05-27T04:50:44;14.57;;;6.85;;
25069;SDS011;13064;48.162;11.536;2023-05-27T04:53:11;21.92;;;7.35;;
25069;SDS011;13064;48.162;11.536;2023-05-27T04:55:40;12.70;;;6.43;;
25069;SDS011;13064;48.162;11.536;2023-05-27T04:58:09;13.15;;;6.80;;
25069;SDS011;13064;48.162;11.536;2023-05-27T05:00:38;13.25;;;6.88;;
25069;SDS011;13064;48.162;11.536;2023-05-27T05:03:17;11.80;;;6.78;;
25069;SDS011;13064;48.162;11.536;2023-05-27T05:05:49;11.55;;;6.93;;
25069;SDS011;13064;48.162;11.536;2023-05-27T05:08:21;12.52;;;7.07;;
25069;SDS011;13064;48.162;11.536;2023-05-27T05:10:50;14.40;;;6.78;;
25069;SDS011;13064;48.162;11.536;2023-05-27T05:13:18;13.05;;;6.40;;
25069;SDS011;13064;48.162;11.536;2023-05-27T05:15:47;18.75;;;7.10;;
25069;SDS011;13064;48.162;11.536;2023-05-27T05:18:15;15.80;;;7.78;;
25069;SDS011;13064;48.162;11.536;2023-05-27T05:20:43;11.88;;;7.05;;
25069;SDS011;13064;48.162;11.536;2023-05-27T05:23:13;11.82;;;6.22;;
25069;SDS011;13064;48.162;11.536;2023-05-27T05:25:42;14.43;;;7.03;;
25069;SDS011;13064;48.162;11.536;2023-05-27T05:28:10;13.02;;;6.30;;
25069;SDS011;13064;48.162;11.536;2023-05-27T05:30:38;12.43;;;6.65;;
25069;SDS011;13064;48.162;11.536;2023-05-27T05:33:07;14.57;;;5.97;;
25069;SDS011;13064;48.162;11.536;2023-05-27T05:35:35;16.63;;;6.43;;
25069;SDS011;13064;48.162;11.536;2023-05-27T05:38:17;15.13;;;7.05;;
25069;SDS011;13064;48.162;11.536;2023-05-27T05:40:47;11.38;;;6.40;;
25069;SDS011;13064;48.162;11.536;2023-05-27T05:43:16;14.52;;;6.95;;
25069;SDS011;13064;48.162;11.536;2023-05-27T05:45:45;11.18;;;6.43;;
25069;SDS011;13064;48.162;11.536;2023-05-27T05:48:13;14.88;;;6.13;;
25069;SDS011;13064;48.162;11.536;2023-05-27T05:50:42;12.93;;;6.47;;
25069;SDS011;13064;48.162;11.536;2023-05-27T05:53:11;12.48;;;5.75;;
25069;SDS011;13064;48.162;11.536;2023-05-27T05:55:39;14.70;;;5.90;;
25069;SDS011;13064;48.162;11.536;2023-05-27T05:58:07;12.52;;;6.20;;
25069;SDS011;13064;48.162;11.536;2023-05-27T06:00:36;14.88;;;5.70;;
25069;SDS011;13064;48.162;11.536;2023-05-27T06:03:23;11.45;;;5.68;;
25069;SDS011;13064;48.162;11.536;2023-05-27T06:05:55;8.77;;;5.32;;
25069;SDS011;13064;48.162;11.536;2023-05-27T06:08:23;16.38;;;6.38;;
25069;SDS011;13064;48.162;11.536;2023-05-27T06:11:04;13.43;;;5.28;;
25069;SDS011;13064;48.162;11.536;2023-05-27T06:13:33;17.05;;;5.88;;
25069;SDS011;13064;48.162;11.536;2023-05-27T06:16:04;14.80;;;5.45;;
25069;SDS011;13064;48.162;11.536;2023-05-27T06:18:32;17.02;;;6.30;;
25069;SDS011;13064;48.162;11.536;2023-05-27T06:21:00;14.18;;;6.25;;
25069;SDS011;13064;48.162;11.536;2023-05-27T06:23:34;14.07;;;6.10;;
25069;SDS011;13064;48.162;11.536;2023-05-27T06:26:14;13.20;;;5.78;;
25069;SDS011;13064;48.162;11.536;2023-05-27T06:28:48;15.50;;;6.15;;
25069;SDS011;13064;48.162;11.536;2023-05-27T06:31:15;14.77;;;5.68;;
25069;SDS011;13064;48.162;11.536;2023-05-27T06:33:43;12.40;;;6.20;;
25069;SDS011;13064;48.162;11.536;2023-05-27T06:36:11;12.02;;;5.50;;
25069;SDS011;13064;48.162;11.536;2023-05-27T06:38:40;14.48;;;6.15;;
25069;SDS011;13064;48.162;11.536;2023-05-27T06:41:08;12.43;;;5.18;;
25069;SDS011;13064;48.162;11.536;2023-05-27T06:43:41;13.77;;;5.30;;
25069;SDS011;13064;48.162;11.536;2023-05-27T06:46:36;11.18;;;4.63;;
25069;SDS011;13064;48.162;11.536;2023-05-27T06:49:13;9.95;;;4.65;;
25069;SDS011;13064;48.162;11.536;2023-05-27T06:51:41;11.90;;;5.40;;
25069;SDS011;13064;48.162;11.536;2023-05-27T06:54:09;12.32;;;5.05;;
25069;SDS011;13064;48.162;11.536;2023-05-27T06:56:42;17.00;;;5.78;;
25069;SDS011;13064;48.162;11.536;2023-05-27T06:59:28;12.55;;;5.10;;
25069;SDS011;13064;48.162;11.536;2023-05-27T07:01:56;8.68;;;4.57;;
25069;SDS011;13064;48.162;11.536;2023-05-27T07:04:24;9.77;;;4.93;;
25069;SDS011;13064;48.162;11.536;2023-05-27T07:06:57;11.80;;;4.72;;
25069;SDS011;13064;48.162;11.536;2023-05-27T07:09:25;13.82;;;5.40;;
25069;SDS011;13064;48.162;11.536;2023-05-27T07:11:53;15.65;;;4.60;;
25069;SDS011;13064;48.162;11.536;2023-05-27T07:14:40;11.95;;;4.65;;
25069;SDS011;13064;48.162;11.536;2023-05-27T07:17:09;10.75;;;4.47;;
25069;SDS011;13064;48.162;11.536;2023-05-27T07:19:37;8.50;;;4.00;;
25069;SDS011;13064;48.162;11.536;2023-05-27T07:22:09;12.70;;;4.50;;
25069;SDS011;13064;48.162;11.536;2023-05-27T07:24:37;9.65;;;4.63;;
25069;SDS011;13064;48.162;11.536;2023-05-27T07:27:05;13.05;;;4.68;;
25069;SDS011;13064;48.162;11.536;2023-05-27T07:29:34;7.50;;;4.13;;
25069;SDS011;13064;48.162;11.536;2023-05-27T07:32:22;13.13;;;4.90;;
25069;SDS011;13064;48.162;11.536;2023-05-27T07:34:50;15.38;;;4.88;;
25069;SDS011;13064;48.162;11.536;2023-05-27T07:37:17;9.52;;;4.40;;
25069;SDS011;13064;48.162;11.536;2023-05-27T07:39:45;13.38;;;4.65;;
25069;SDS011;13064;48.162;11.536;2023-05-27T07:42:17;18.33;;;5.03;;
25069;SDS011;13064;48.162;11.536;2023-05-27T07:44:45;17.35;;;4.88;;
25069;SDS011;13064;48.162;11.536;2023-05-27T07:47:13;11.23;;;5.35;;
25069;SDS011;13064;48.162;11.536;2023-05-27T07:49:41;12.73;;;5.20;;
25069;SDS011;13064;48.162;11.536;2023-05-27T07:52:32;12.90;;;4.95;;
25069;SDS011;13064;48.162;11.536;2023-05-27T07:55:03;15.88;;;5.45;;
25069;SDS011;13064;48.162;11.536;2023-05-27T07:57:31;16.17;;;5.13;;
25069;SDS011;13064;48.162;11.536;2023-05-27T07:59:59;13.80;;;5.20;;
25069;SDS011;13064;48.162;11.536;2023-05-27T08:02:40;13.50;;;4.63;;
25069;SDS011;13064;48.162;11.536;2023-05-27T08:05:10;15.30;;;5.70;;
25069;SDS011;13064;48.162;11.536;2023-05-27T08:07:47;15.75;;;4.68;;
25069;SDS011;13064;48.162;11.536;2023-05-27T08:10:47;14.07;;;5.40;;
25069;SDS011;13064;48.162;11.536;2023-05-27T08:13:38;11.85;;;4.45;;
25069;SDS011;13064;48.162;11.536;2023-05-27T08:16:25;14.45;;;4.80;;
25069;SDS011;13064;48.162;11.536;2023-05-27T08:19:22;17.92;;;4.70;;
25069;SDS011;13064;48.162;11.536;2023-05-27T08:22:00;16.42;;;4.90;;
25069;SDS011;13064;48.162;11.536;2023-05-27T08:24:58;13.05;;;4.88;;
25069;SDS011;13064;48.162;11.536;2023-05-27T08:27:55;15.00;;;5.68;;
25069;SDS011;13064;48.162;11.536;2023-05-27T08:30:52;11.10;;;4.82;;
25069;SDS011;13064;48.162;11.536;2023-05-27T08:35:52;12.38;;;4.40;;
25069;SDS011;13064;48.162;11.536;2023-05-27T08:38:20;12.82;;;4.78;;
25069;SDS011;13064;48.162;11.536;2023-05-27T08:40:52;13.53;;;4.63;;
25069;SDS011;13064;48.162;11.536;2023-05-27T08:43:19;10.50;;;4.35;;
25069;SDS011;13064;48.162;11.536;2023-05-27T08:45:49;11.75;;;4.82;;
25069;SDS011;13064;48.162;11.536;2023-05-27T08:48:17;13.80;;;5.53;;
25069;SDS011;13064;48.162;11.536;2023-05-27T08:50:46;10.85;;;4.97;;
25069;SDS011;13064;48.162;11.536;2023-05-27T08:53:14;10.85;;;5.18;;
25069;SDS011;13064;48.162;11.536;2023-05-27T08:55:45;12.10;;;5.53;;
25069;SDS011;13064;48.162;11.536;2023-05-27T08:58:15;12.20;;;4.93;;
25069;SDS011;13064;48.162;11.536;2023-05-27T09:00:51;11.13;;;5.50;;
25069;SDS011;13064;48.162;11.536;2023-05-27T09:03:22;10.77;;;4.35;;
25069;SDS011;13064;48.162;11.536;2023-05-27T09:05:51;13.30;;;5.30;;
25069;SDS011;13064;48.162;11.536;2023-05-27T09:08:19;12.85;;;4.82;;
25069;SDS011;13064;48.162;11.536;2023-05-27T09:10:47;13.38;;;4.88;;
25069;SDS011;13064;48.162;11.536;2023-05-27T09:13:24;12.32;;;4.88;;
25069;SDS011;13064;48.162;11.536;2023-05-27T09:16:02;12.25;;;4.50;;
25069;SDS011;13064;48.162;11.536;2023-05-27T09:18:31;12.93;;;4.95;;
25069;SDS011;13064;48.162;11.536;2023-05-27T09:20:59;12.40;;;5.32;;
25069;SDS011;13064;48.162;11.536;2023-05-27T09:23:27;13.55;;;5.20;;
25069;SDS011;13064;48.162;11.536;2023-05-27T09:25:54;15.25;;;4.93;;
25069;SDS011;13064;48.162;11.536;2023-05-27T09:28:22;13.43;;;6.18;;
25069;SDS011;13064;48.162;11.536;2023-05-27T09:31:00;10.95;;;5.07;;
25069;SDS011;13064;48.162;11.536;2023-05-27T09:33:32;10.35;;;4.85;;
25069;SDS011;13064;48.162;11.536;2023-05-27T09:36:00;9.57;;;4.95;;
25069;SDS011;13064;48.162;11.536;2023-05-27T09:38:32;11.63;;;5.00;;
25069;SDS011;13064;48.162;11.536;2023-05-27T09:41:00;12.48;;;5.85;;
25069;SDS011;13064;48.162;11.536;2023-05-27T09:43:28;10.43;;;5.45;;
25069;SDS011;13064;48.162;11.536;2023-05-27T09:45:59;9.88;;;4.60;;
25069;SDS011;13064;48.162;11.536;2023-05-27T09:48:30;15.25;;;5.30;;
25069;SDS011;13064;48.162;11.536;2023-05-27T09:50:59;12.52;;;4.97;;
25069;SDS011;13064;48.162;11.536;2023-05-27T09:53:27;9.73;;;4.45;;
25069;SDS011;13064;48.162;11.536;2023-05-27T09:55:55;12.05;;;4.95;;
25069;SDS011;13064;48.162;11.536;2023-05-27T09:58:24;12.85;;;4.93;;
25069;SDS011;13064;48.162;11.536;2023-05-27T10:00:52;10.50;;;5.28;;
25069;SDS011;13064;48.162;11.536;2023-05-27T10:03:21;10.88;;;5.30;;
25069;SDS011;13064;48.162;11.536;2023-05-27T10:05:50;12.10;;;5.28;;
25069;SDS011;13064;48.162;11.536;2023-05-27T10:08:18;9.40;;;4.80;;
25069;SDS011;13064;48.162;11.536;2023-05-27T10:10:52;8.48;;;4.40;;
25069;SDS011;13064;48.162;11.536;2023-05-27T10:13:24;13.57;;;4.90;;
25069;SDS011;13064;48.162;11.536;2023-05-27T10:15:52;10.82;;;5.18;;
25069;SDS011;13064;48.162;11.536;2023-05-27T10:18:24;8.38;;;4.88;;
25069;SDS011;13064;48.162;11.536;2023-05-27T10:20:52;11.75;;;4.88;;
25069;SDS011;13064;48.162;11.536;2023-05-27T10:23:27;10.05;;;4.63;;
25069;SDS011;13064;48.162;11.536;2023-05-27T10:25:56;10.55;;;4.88;;
25069;SDS011;13064;48.162;11.536;2023-05-27T10:28:37;14.48;;;5.00;;
25069;SDS011;13064;48.162;11.536;2023-05-27T10:33:36;8.60;;;4.53;;
25069;SDS011;13064;48.162;11.536;2023-05-27T10:36:07;10.43;;;4.78;;
25069;SDS011;13064;48.162;11.536;2023-05-27T10:38:36;9.18;;;4.93;;
25069;SDS011;13064;48.162;11.536;2023-05-27T10:41:05;12.65;;;4.38;;
25069;SDS011;13064;48.162;11.536;2023-05-27T10:43:34;11.35;;;4.85;;
25069;SDS011;13064;48.162;11.536;2023-05-27T10:46:02;10.80;;;4.80;;
25069;SDS011;13064;48.162;11.536;2023-05-27T10:48:31;10.85;;;4.90;;
25069;SDS011;13064;48.162;11.536;2023-05-27T10:51:02;7.00;;;4.18;;
25069;SDS011;13064;48.162;11.536;2023-05-27T10:53:31;13.20;;;4.82;;
25069;SDS011;13064;48.162;11.536;2023-05-27T10:55:59;13.93;;;5.13;;
25069;SDS011;13064;48.162;11.536;2023-05-27T10:58:27;8.60;;;4.93;;
25069;SDS011;13064;48.162;11.536;2023-05-27T11:00:56;9.95;;;4.22;;
25069;SDS011;13064;48.162;11.536;2023-05-27T11:03:24;10.23;;;4.68;;
25069;SDS011;13064;48.162;11.536;2023-05-27T11:06:05;9.57;;;4.70;;
25069;SDS011;13064;48.162;11.536;2023-05-27T11:08:34;8.27;;;4.18;;
25069;SDS011;13064;48.162;11.536;2023-05-27T11:11:05;8.88;;;4.07;;
25069;SDS011;13064;48.162;11.536;2023-05-27T11:16:01;11.20;;;4.70;;
25069;SDS011;13064;48.162;11.536;2023-05-27T11:18:36;7.28;;;4.07;;
25069;SDS011;13064;48.162;11.536;2023-05-27T11:21:05;10.55;;;4.60;;
25069;SDS011;13064;48.162;11.536;2023-05-27T11:23:34;9.15;;;4.30;;
25069;SDS011;13064;48.162;11.536;2023-05-27T11:26:01;8.52;;;4.15;;
25069;SDS011;13064;48.162;11.536;2023-05-27T11:28:29;8.18;;;4.28;;
25069;SDS011;13064;48.162;11.536;2023-05-27T11:31:03;12.30;;;4.95;;
25069;SDS011;13064;48.162;11.536;2023-05-27T11:33:32;8.02;;;4.35;;
25069;SDS011;13064;48.162;11.536;2023-05-27T11:36:04;9.20;;;4.53;;
25069;SDS011;13064;48.162;11.536;2023-05-27T11:38:44;5.43;;;3.92;;
25069;SDS011;13064;48.162;11.536;2023-05-27T11:41:17;8.35;;;3.95;;
25069;SDS011;13064;48.162;11.536;2023-05-27T11:43:51;7.93;;;4.45;;
25069;SDS011;13064;48.162;11.536;2023-05-27T11:46:20;8.95;;;4.20;;
25069;SDS011;13064;48.162;11.536;2023-05-27T11:48:48;8.80;;;4.40;;
25069;SDS011;13064;48.162;11.536;2023-05-27T11:51:16;7.90;;;4.65;;
25069;SDS011;13064;48.162;11.536;2023-05-27T11:53:45;7.78;;;3.70;;
25069;SDS011;13064;48.162;11.536;2023-05-27T11:56:13;10.48;;;4.40;;
25069;SDS011;13064;48.162;11.536;2023-05-27T11:58:42;9.35;;;3.95;;
25069;SDS011;13064;48.162;11.536;2023-05-27T12:01:09;7.38;;;4.25;;
25069;SDS011;13064;48.162;11.536;2023-05-27T12:03:37;6.85;;;4.10;;
25069;SDS011;13064;48.162;11.536;2023-05-27T12:06:05;9.35;;;4.30;;
25069;SDS011;13064;48.162;11.536;2023-05-27T12:08:32;8.57;;;4.00;;
25069;SDS011;13064;48.162;11.536;2023-05-27T12:11:00;9.38;;;4.50;;
25069;SDS011;13064;48.162;11.536;2023-05-27T12:13:28;7.72;;;4.07;;
25069;SDS011;13064;48.162;11.536;2023-05-27T12:15:58;7.97;;;3.92;;
25069;SDS011;13064;48.162;11.536;2023-05-27T12:18:26;10.32;;;4.22;;
25069;SDS011;13064;48.162;11.536;2023-05-27T12:20:53;7.95;;;4.10;;
25069;SDS011;13064;48.162;11.536;2023-05-27T12:23:21;7.57;;;4.28;;
25069;SDS011;13064;48.162;11.536;2023-05-27T12:25:49;8.82;;;4.18;;
25069;SDS011;13064;48.162;11.536;2023-05-27T12:28:17;10.05;;;4.50;;
25069;SDS011;13064;48.162;11.536;2023-05-27T12:30:44;10.07;;;3.97;;
25069;SDS011;13064;48.162;11.536;2023-05-27T12:33:13;12.77;;;3.70;;
25069;SDS011;13064;48.162;11.536;2023-05-27T12:35:40;10.57;;;4.30;;
25069;SDS011;13064;48.162;11.536;2023-05-27T12:38:08;9.20;;;3.85;;
25069;SDS011;13064;48.162;11.536;2023-05-27T12:40:36;10.32;;;3.60;;
25069;SDS011;13064;48.162;11.536;2023-05-27T12:43:03;9.93;;;3.70;;
25069;SDS011;13064;48.162;11.536;2023-05-27T12:45:31;7.95;;;3.65;;
25069;SDS011;13064;48.162;11.536;2023-05-27T12:47:59;12.05;;;4.57;;
25069;SDS011;13064;48.162;11.536;2023-05-27T12:50:27;6.85;;;3.53;;
25069;SDS011;13064;48.162;11.536;2023-05-27T12:52:54;9.25;;;4.20;;
25069;SDS011;13064;48.162;11.536;2023-05-27T12:55:22;8.82;;;3.92;;
25069;SDS011;13064;48.162;11.536;2023-05-27T12:57:51;9.85;;;4.07;;
25069;SDS011;13064;48.162;11.536;2023-05-27T13:00:19;10.07;;;3.83;;
25069;SDS011;13064;48.162;11.536;2023-05-27T13:02:47;8.43;;;3.75;;
25069;SDS011;13064;48.162;11.536;2023-05-27T13:05:15;8.02;;;3.78;;
25069;SDS011;13064;48.162;11.536;2023-05-27T13:07:59;8.35;;;4.22;;
25069;SDS011;13064;48.162;11.536;2023-05-27T13:10:28;6.95;;;3.45;;
25069;SDS011;13064;48.162;11.536;2023-05-27T13:12:57;10.23;;;4.00;;
25069;SDS011;13064;48.162;11.536;2023-05-27T13:15:26;9.40;;;4.07;;
25069;SDS011;13064;48.162;11.536;2023-05-27T13:17:53;9.23;;;4.25;;
25069;SDS011;13064;48.162;11.536;2023-05-27T13:20:22;11.10;;;3.90;;
25069;SDS011;13064;48.162;11.536;2023-05-27T13:22:51;9.15;;;4.43;;
25069;SDS011;13064;48.162;11.536;2023-05-27T13:25:20;7.25;;;3.78;;
25069;SDS011;13064;48.162;11.536;2023-05-27T13:27:47;7.85;;;4.43;;
25069;SDS011;13064;48.162;11.536;2023-05-27T13:30:15;8.60;;;3.70;;
25069;SDS011;13064;48.162;11.536;2023-05-27T13:32:43;8.18;;;3.83;;
25069;SDS011;13064;48.162;11.536;2023-05-27T13:35:11;8.93;;;4.20;;
25069;SDS011;13064;48.162;11.536;2023-05-27T13:37:38;7.85;;;3.85;;
25069;SDS011;13064;48.162;11.536;2023-05-27T13:40:07;10.10;;;3.95;;
25069;SDS011;13064;48.162;11.536;2023-05-27T13:42:35;8.25;;;3.50;;
25069;SDS011;13064;48.162;11.536;2023-05-27T13:45:03;7.90;;;3.90;;
25069;SDS011;13064;48.162;11.536;2023-05-27T13:47:32;12.52;;;4.70;;
25069;SDS011;13064;48.162;11.536;2023-05-27T13:49:59;10.65;;;3.92;;
25069;SDS011;13064;48.162;11.536;2023-05-27T13:52:27;10.68;;;4.15;;
25069;SDS011;13064;48.162;11.536;2023-05-27T13:54:55;12.13;;;3.97;;
25069;SDS011;13064;48.162;11.536;2023-05-27T13:57:22;11.77;;;4.20;;
25069;SDS011;13064;48.162;11.536;2023-05-27T13:59:50;8.35;;;3.55;;
25069;SDS011;13064;48.162;11.536;2023-05-27T14:02:18;13.55;;;4.43;;
25069;SDS011;13064;48.162;11.536;2023-05-27T14:04:45;9.43;;;3.63;;
25069;SDS011;13064;48.162;11.536;2023-05-27T14:07:13;7.07;;;3.90;;
25069;SDS011;13064;48.162;11.536;2023-05-27T14:09:41;9.00;;;3.80;;
25069;SDS011;13064;48.162;11.536;2023-05-27T14:12:08;7.88;;;4.18;;
25069;SDS011;13064;48.162;11.536;2023-05-27T14:14:36;7.65;;;3.85;;
25069;SDS011;13064;48.162;11.536;2023-05-27T14:17:05;10.80;;;3.95;;
25069;SDS011;13064;48.162;11.536;2023-05-27T14:19:34;10.07;;;3.58;;
25069;SDS011;13064;48.162;11.536;2023-05-27T14:22:02;7.85;;;3.80;;
25069;SDS011;13064;48.162;11.536;2023-05-27T14:24:30;10.25;;;4.20;;
25069;SDS011;13064;48.162;11.536;2023-05-27T14:26:58;7.63;;;3.65;;
25069;SDS011;13064;48.162;11.536;2023-05-27T14:29:25;10.40;;;4.30;;
25069;SDS011;13064;48.162;11.536;2023-05-27T14:31:53;8.55;;;3.63;;
25069;SDS011;13064;48.162;11.536;2023-05-27T14:34:21;8.13;;;3.33;;
25069;SDS011;13064;48.162;11.536;2023-05-27T14:36:49;6.85;;;3.15;;
25069;SDS011;13064;48.162;11.536;2023-05-27T14:39:17;9.57;;;3.90;;
25069;SDS011;13064;48.162;11.536;2023-05-27T14:41:44;10.07;;;3.88;;
25069;SDS011;13064;48.162;11.536;2023-05-27T14:44:12;7.47;;;3.53;;
25069;SDS011;13064;48.162;11.536;2023-05-27T14:46:41;9.38;;;3.42;;
25069;SDS011;13064;48.162;11.536;2023-05-27T14:49:08;8.90;;;3.78;;
25069;SDS011;13064;48.162;11.536;2023-05-27T14:51:36;11.45;;;4.00;;